sensor_id;sensor_type;location;lat;lon;timestamp;temperature;humidity
8792;DHT22;4432;50.890;4.744;2022-11-24T00:01:37;8.70;99.90
8792;DHT22;4432;50.890;4.744;2022-11-24T00:04:04;8.70;99.90
8792;DHT22;4432;50.890;4.744;2022-11-24T00:06:31;8.70;99.90
8792;DHT22;4432;50.890;4.744;2022-11-24T00:08:58;8.70;99.90
8792;DHT22;4432;50.890;4.744;2022-11-24T00:11:27;8.80;99.90
8792;DHT22;4432;50.890;4.744;2022-11-24T00:13:53;8.80;99.90
8792;DHT22;4432;50.890;4.744;2022-11-24T00:16:21;8.80;99.90
8792;DHT22;4432;50.890;4.744;2022-11-24T00:18:49;8.90;99.90
8792;DHT22;4432;50.890;4.744;2022-11-24T00:21:16;8.90;99.90
8792;DHT22;4432;50.890;4.744;2022-11-24T00:23:42;8.90;99.90
8792;DHT22;4432;50.890;4.744;2022-11-24T00:26:12;8.80;99.90
8792;DHT22;4432;50.890;4.744;2022-11-24T00:28:38;8.80;99.90
8792;DHT22;4432;50.890;4.744;2022-11-24T00:31:12;8.80;99.90
8792;DHT22;4432;50.890;4.744;2022-11-24T00:33:38;8.80;99.90
8792;DHT22;4432;50.890;4.744;2022-11-24T00:36:04;8.80;99.90
8792;DHT22;4432;50.890;4.744;2022-11-24T00:38:30;8.90;99.90
8792;DHT22;4432;50.890;4.744;2022-11-24T00:40:55;8.80;99.90
8792;DHT22;4432;50.890;4.744;2022-11-24T00:43:21;8.70;99.90
8792;DHT22;4432;50.890;4.744;2022-11-24T00:45:47;8.70;99.90
8792;DHT22;4432;50.890;4.744;2022-11-24T00:48:12;8.70;99.90
8792;DHT22;4432;50.890;4.744;2022-11-24T00:50:38;8.70;99.90
8792;DHT22;4432;50.890;4.744;2022-11-24T00:53:04;8.60;99.90
8792;DHT22;4432;50.890;4.744;2022-11-24T00:55:30;8.60;99.90
8792;DHT22;4432;50.890;4.744;2022-11-24T00:57:55;8.70;99.90
8792;DHT22;4432;50.890;4.744;2022-11-24T01:00:21;8.70;99.90
8792;DHT22;4432;50.890;4.744;2022-11-24T01:02:47;8.70;99.90
8792;DHT22;4432;50.890;4.744;2022-11-24T01:05:13;8.70;99.90
8792;DHT22;4432;50.890;4.744;2022-11-24T01:07:38;8.70;99.90
8792;DHT22;4432;50.890;4.744;2022-11-24T01:10:04;8.70;99.90
8792;DHT22;4432;50.890;4.744;2022-11-24T01:12:30;8.70;99.90
8792;DHT22;4432;50.890;4.744;2022-11-24T01:14:57;8.80;99.90
8792;DHT22;4432;50.890;4.744;2022-11-24T01:17:23;8.90;99.90
8792;DHT22;4432;50.890;4.744;2022-11-24T01:19:49;8.90;99.90
8792;DHT22;4432;50.890;4.744;2022-11-24T01:22:15;8.90;99.90
8792;DHT22;4432;50.890;4.744;2022-11-24T01:24:41;8.90;99.90
8792;DHT22;4432;50.890;4.744;2022-11-24T01:27:07;8.90;99.90
8792;DHT22;4432;50.890;4.744;2022-11-24T01:29:32;8.90;99.90
8792;DHT22;4432;50.890;4.744;2022-11-24T01:31:58;9.00;99.90
8792;DHT22;4432;50.890;4.744;2022-11-24T01:34:24;9.00;99.90
8792;DHT22;4432;50.890;4.744;2022-11-24T01:36:49;9.00;99.90
8792;DHT22;4432;50.890;4.744;2022-11-24T01:39:15;9.00;99.90
8792;DHT22;4432;50.890;4.744;2022-11-24T01:41:41;8.90;99.90
8792;DHT22;4432;50.890;4.744;2022-11-24T01:44:24;8.80;99.90
8792;DHT22;4432;50.890;4.744;2022-11-24T01:46:59;8.70;99.90
8792;DHT22;4432;50.890;4.744;2022-11-24T01:49:45;8.80;99.90
8792;DHT22;4432;50.890;4.744;2022-11-24T01:52:23;8.80;99.90
8792;DHT22;4432;50.890;4.744;2022-11-24T01:54:53;8.90;99.90
8792;DHT22;4432;50.890;4.744;2022-11-24T01:57:22;8.90;99.90
8792;DHT22;4432;50.890;4.744;2022-11-24T01:59:52;8.90;99.90
8792;DHT22;4432;50.890;4.744;2022-11-24T02:02:19;9.00;99.90
8792;DHT22;4432;50.890;4.744;2022-11-24T02:04:46;9.00;99.90
8792;DHT22;4432;50.890;4.744;2022-11-24T02:07:12;9.00;99.90
8792;DHT22;4432;50.890;4.744;2022-11-24T02:12:08;9.10;99.90
8792;DHT22;4432;50.890;4.744;2022-11-24T02:14:35;9.10;99.90
8792;DHT22;4432;50.890;4.744;2022-11-24T02:17:02;9.10;99.90
8792;DHT22;4432;50.890;4.744;2022-11-24T02:19:36;9.10;99.90
8792;DHT22;4432;50.890;4.744;2022-11-24T02:22:17;9.10;99.90
8792;DHT22;4432;50.890;4.744;2022-11-24T02:24:46;9.20;99.90
8792;DHT22;4432;50.890;4.744;2022-11-24T02:27:14;9.20;99.90
8792;DHT22;4432;50.890;4.744;2022-11-24T02:29:40;9.20;99.90
8792;DHT22;4432;50.890;4.744;2022-11-24T02:32:06;9.20;99.90
8792;DHT22;4432;50.890;4.744;2022-11-24T02:34:33;9.20;99.90
8792;DHT22;4432;50.890;4.744;2022-11-24T02:36:59;9.20;99.90
8792;DHT22;4432;50.890;4.744;2022-11-24T02:39:25;9.20;99.90
8792;DHT22;4432;50.890;4.744;2022-11-24T02:41:59;9.30;99.90
8792;DHT22;4432;50.890;4.744;2022-11-24T02:44:29;9.30;99.90
8792;DHT22;4432;50.890;4.744;2022-11-24T02:47:07;9.40;99.90
8792;DHT22;4432;50.890;4.744;2022-11-24T02:49:34;9.40;99.90
8792;DHT22;4432;50.890;4.744;2022-11-24T02:52:00;9.40;99.90
8792;DHT22;4432;50.890;4.744;2022-11-24T02:54:27;9.50;99.90
8792;DHT22;4432;50.890;4.744;2022-11-24T02:56:52;9.50;99.90
8792;DHT22;4432;50.890;4.744;2022-11-24T02:59:18;9.50;99.90
8792;DHT22;4432;50.890;4.744;2022-11-24T03:01:44;9.50;99.90
8792;DHT22;4432;50.890;4.744;2022-11-24T03:04:10;9.50;99.90
8792;DHT22;4432;50.890;4.744;2022-11-24T03:06:36;9.60;99.90
8792;DHT22;4432;50.890;4.744;2022-11-24T03:09:02;9.50;99.90
8792;DHT22;4432;50.890;4.744;2022-11-24T03:11:28;9.50;99.90
8792;DHT22;4432;50.890;4.744;2022-11-24T03:13:54;9.50;99.90
8792;DHT22;4432;50.890;4.744;2022-11-24T03:16:20;9.60;99.90
8792;DHT22;4432;50.890;4.744;2022-11-24T03:18:46;9.50;99.90
8792;DHT22;4432;50.890;4.744;2022-11-24T03:21:14;9.40;99.90
8792;DHT22;4432;50.890;4.744;2022-11-24T03:23:40;9.40;99.90
8792;DHT22;4432;50.890;4.744;2022-11-24T03:26:10;9.40;99.90
8792;DHT22;4432;50.890;4.744;2022-11-24T03:28:36;9.30;99.90
8792;DHT22;4432;50.890;4.744;2022-11-24T03:31:02;9.30;99.90
8792;DHT22;4432;50.890;4.744;2022-11-24T03:33:28;9.30;99.90
8792;DHT22;4432;50.890;4.744;2022-11-24T03:35:54;9.20;99.90
8792;DHT22;4432;50.890;4.744;2022-11-24T03:38:19;9.20;99.90
8792;DHT22;4432;50.890;4.744;2022-11-24T03:40:45;9.10;99.90
8792;DHT22;4432;50.890;4.744;2022-11-24T03:43:11;9.10;99.90
8792;DHT22;4432;50.890;4.744;2022-11-24T03:45:36;9.10;99.90
8792;DHT22;4432;50.890;4.744;2022-11-24T03:48:02;9.10;99.90
8792;DHT22;4432;50.890;4.744;2022-11-24T03:50:28;9.10;99.90
8792;DHT22;4432;50.890;4.744;2022-11-24T03:52:54;9.10;99.90
8792;DHT22;4432;50.890;4.744;2022-11-24T03:55:19;9.10;99.90
8792;DHT22;4432;50.890;4.744;2022-11-24T03:57:45;9.20;99.90
8792;DHT22;4432;50.890;4.744;2022-11-24T04:00:11;9.20;99.90
8792;DHT22;4432;50.890;4.744;2022-11-24T04:02:37;9.30;99.90
8792;DHT22;4432;50.890;4.744;2022-11-24T04:05:03;9.30;99.90
8792;DHT22;4432;50.890;4.744;2022-11-24T04:07:29;9.20;99.90
8792;DHT22;4432;50.890;4.744;2022-11-24T04:09:55;9.20;99.90
8792;DHT22;4432;50.890;4.744;2022-11-24T04:12:21;9.20;99.90
8792;DHT22;4432;50.890;4.744;2022-11-24T04:15:05;9.20;99.90
8792;DHT22;4432;50.890;4.744;2022-11-24T04:17:31;9.20;99.90
8792;DHT22;4432;50.890;4.744;2022-11-24T04:19:57;9.10;99.90
8792;DHT22;4432;50.890;4.744;2022-11-24T04:22:22;9.10;99.90
8792;DHT22;4432;50.890;4.744;2022-11-24T04:24:48;9.10;99.90
8792;DHT22;4432;50.890;4.744;2022-11-24T04:27:14;9.10;99.90
8792;DHT22;4432;50.890;4.744;2022-11-24T04:29:39;9.00;99.90
8792;DHT22;4432;50.890;4.744;2022-11-24T04:32:05;9.00;99.90
8792;DHT22;4432;50.890;4.744;2022-11-24T04:34:31;8.90;99.90
8792;DHT22;4432;50.890;4.744;2022-11-24T04:36:57;8.80;99.90
8792;DHT22;4432;50.890;4.744;2022-11-24T04:39:22;8.80;99.90
8792;DHT22;4432;50.890;4.744;2022-11-24T04:41:48;8.80;99.90
8792;DHT22;4432;50.890;4.744;2022-11-24T04:44:14;8.80;99.90
8792;DHT22;4432;50.890;4.744;2022-11-24T04:46:39;8.70;99.90
8792;DHT22;4432;50.890;4.744;2022-11-24T04:49:05;8.60;99.90
8792;DHT22;4432;50.890;4.744;2022-11-24T04:51:31;8.60;99.90
8792;DHT22;4432;50.890;4.744;2022-11-24T04:53:56;8.60;99.90
8792;DHT22;4432;50.890;4.744;2022-11-24T04:56:22;8.50;99.90
8792;DHT22;4432;50.890;4.744;2022-11-24T04:58:48;8.50;99.90
8792;DHT22;4432;50.890;4.744;2022-11-24T05:01:14;8.40;99.90
8792;DHT22;4432;50.890;4.744;2022-11-24T05:03:40;8.30;99.90
8792;DHT22;4432;50.890;4.744;2022-11-24T05:06:06;8.30;99.90
8792;DHT22;4432;50.890;4.744;2022-11-24T05:08:33;8.40;99.90
8792;DHT22;4432;50.890;4.744;2022-11-24T05:11:04;8.30;99.90
8792;DHT22;4432;50.890;4.744;2022-11-24T05:13:30;8.30;99.90
8792;DHT22;4432;50.890;4.744;2022-11-24T05:15:56;8.30;99.90
8792;DHT22;4432;50.890;4.744;2022-11-24T05:18:21;8.20;99.90
8792;DHT22;4432;50.890;4.744;2022-11-24T05:20:47;8.20;99.90
8792;DHT22;4432;50.890;4.744;2022-11-24T05:23:14;8.10;99.90
8792;DHT22;4432;50.890;4.744;2022-11-24T05:25:40;8.10;99.90
8792;DHT22;4432;50.890;4.744;2022-11-24T05:28:07;8.00;99.90
8792;DHT22;4432;50.890;4.744;2022-11-24T05:30:37;8.00;99.90
8792;DHT22;4432;50.890;4.744;2022-11-24T05:33:12;8.00;99.90
8792;DHT22;4432;50.890;4.744;2022-11-24T05:35:44;7.90;99.90
8792;DHT22;4432;50.890;4.744;2022-11-24T05:38:10;7.90;99.90
8792;DHT22;4432;50.890;4.744;2022-11-24T05:40:36;7.90;99.90
8792;DHT22;4432;50.890;4.744;2022-11-24T05:43:03;7.90;99.90
8792;DHT22;4432;50.890;4.744;2022-11-24T05:45:29;7.90;99.90
8792;DHT22;4432;50.890;4.744;2022-11-24T05:47:54;7.90;99.90
8792;DHT22;4432;50.890;4.744;2022-11-24T05:50:27;7.90;99.90
8792;DHT22;4432;50.890;4.744;2022-11-24T05:52:53;7.90;99.90
8792;DHT22;4432;50.890;4.744;2022-11-24T05:55:19;7.80;99.90
8792;DHT22;4432;50.890;4.744;2022-11-24T05:57:45;7.90;99.90
8792;DHT22;4432;50.890;4.744;2022-11-24T06:00:11;7.80;99.90
8792;DHT22;4432;50.890;4.744;2022-11-24T06:02:37;7.80;99.90
8792;DHT22;4432;50.890;4.744;2022-11-24T06:05:03;7.90;99.90
8792;DHT22;4432;50.890;4.744;2022-11-24T06:07:29;7.90;99.90
8792;DHT22;4432;50.890;4.744;2022-11-24T06:09:54;7.90;99.90
8792;DHT22;4432;50.890;4.744;2022-11-24T06:12:20;7.90;99.90
8792;DHT22;4432;50.890;4.744;2022-11-24T06:14:46;7.80;99.90
8792;DHT22;4432;50.890;4.744;2022-11-24T06:17:11;7.70;99.90
8792;DHT22;4432;50.890;4.744;2022-11-24T06:19:38;7.60;99.90
8792;DHT22;4432;50.890;4.744;2022-11-24T06:22:03;7.60;99.90
8792;DHT22;4432;50.890;4.744;2022-11-24T06:24:29;7.60;99.90
8792;DHT22;4432;50.890;4.744;2022-11-24T06:26:55;7.60;99.90
8792;DHT22;4432;50.890;4.744;2022-11-24T06:29:21;7.50;99.90
8792;DHT22;4432;50.890;4.744;2022-11-24T06:31:46;7.60;99.90
8792;DHT22;4432;50.890;4.744;2022-11-24T06:34:13;7.50;99.90
8792;DHT22;4432;50.890;4.744;2022-11-24T06:36:39;7.50;99.90
8792;DHT22;4432;50.890;4.744;2022-11-24T06:39:05;7.50;99.90
8792;DHT22;4432;50.890;4.744;2022-11-24T06:41:32;7.50;99.90
8792;DHT22;4432;50.890;4.744;2022-11-24T06:44:00;7.50;99.90
8792;DHT22;4432;50.890;4.744;2022-11-24T06:46:26;7.40;99.90
8792;DHT22;4432;50.890;4.744;2022-11-24T06:48:52;7.40;99.90
8792;DHT22;4432;50.890;4.744;2022-11-24T06:51:18;7.40;99.90
8792;DHT22;4432;50.890;4.744;2022-11-24T06:53:44;7.40;99.90
8792;DHT22;4432;50.890;4.744;2022-11-24T06:56:12;7.50;99.90
8792;DHT22;4432;50.890;4.744;2022-11-24T06:58:42;7.40;99.90
8792;DHT22;4432;50.890;4.744;2022-11-24T07:01:08;7.40;99.90
8792;DHT22;4432;50.890;4.744;2022-11-24T07:03:34;7.40;99.90
8792;DHT22;4432;50.890;4.744;2022-11-24T07:06:00;7.40;99.90
8792;DHT22;4432;50.890;4.744;2022-11-24T07:08:26;7.40;99.90
8792;DHT22;4432;50.890;4.744;2022-11-24T07:10:52;7.40;99.90
8792;DHT22;4432;50.890;4.744;2022-11-24T07:13:18;7.40;99.90
8792;DHT22;4432;50.890;4.744;2022-11-24T07:15:45;7.40;99.90
8792;DHT22;4432;50.890;4.744;2022-11-24T07:18:10;7.30;99.90
8792;DHT22;4432;50.890;4.744;2022-11-24T07:20:36;7.30;99.90
8792;DHT22;4432;50.890;4.744;2022-11-24T07:23:02;7.40;99.90
8792;DHT22;4432;50.890;4.744;2022-11-24T07:25:27;7.40;99.90
8792;DHT22;4432;50.890;4.744;2022-11-24T07:27:59;7.40;99.90
8792;DHT22;4432;50.890;4.744;2022-11-24T07:30:26;7.40;99.90
8792;DHT22;4432;50.890;4.744;2022-11-24T07:33:02;7.40;99.90
8792;DHT22;4432;50.890;4.744;2022-11-24T07:35:28;7.50;99.90
8792;DHT22;4432;50.890;4.744;2022-11-24T07:37:56;7.50;99.90
8792;DHT22;4432;50.890;4.744;2022-11-24T07:40:23;7.50;99.90
8792;DHT22;4432;50.890;4.744;2022-11-24T07:42:49;7.50;99.90
8792;DHT22;4432;50.890;4.744;2022-11-24T07:45:14;7.60;99.90
8792;DHT22;4432;50.890;4.744;2022-11-24T07:47:40;7.60;99.90
8792;DHT22;4432;50.890;4.744;2022-11-24T07:50:08;7.70;99.90
8792;DHT22;4432;50.890;4.744;2022-11-24T07:52:35;7.60;99.90
8792;DHT22;4432;50.890;4.744;2022-11-24T07:55:01;7.70;99.90
8792;DHT22;4432;50.890;4.744;2022-11-24T07:57:26;7.70;99.90
8792;DHT22;4432;50.890;4.744;2022-11-24T07:59:54;7.70;99.90
8792;DHT22;4432;50.890;4.744;2022-11-24T08:02:21;7.80;99.90
8792;DHT22;4432;50.890;4.744;2022-11-24T08:04:46;7.90;99.90
8792;DHT22;4432;50.890;4.744;2022-11-24T08:07:12;7.90;99.90
8792;DHT22;4432;50.890;4.744;2022-11-24T08:09:38;8.00;99.90
8792;DHT22;4432;50.890;4.744;2022-11-24T08:12:04;8.10;99.90
8792;DHT22;4432;50.890;4.744;2022-11-24T08:14:30;8.10;99.90
8792;DHT22;4432;50.890;4.744;2022-11-24T08:16:57;8.20;99.90
8792;DHT22;4432;50.890;4.744;2022-11-24T08:19:22;8.30;99.90
8792;DHT22;4432;50.890;4.744;2022-11-24T08:21:48;8.50;99.90
8792;DHT22;4432;50.890;4.744;2022-11-24T08:24:15;8.70;99.90
8792;DHT22;4432;50.890;4.744;2022-11-24T08:26:42;8.90;99.90
8792;DHT22;4432;50.890;4.744;2022-11-24T08:29:07;9.10;99.90
8792;DHT22;4432;50.890;4.744;2022-11-24T08:31:33;9.30;99.90
8792;DHT22;4432;50.890;4.744;2022-11-24T08:34:01;9.40;99.90
8792;DHT22;4432;50.890;4.744;2022-11-24T08:36:27;9.50;99.90
8792;DHT22;4432;50.890;4.744;2022-11-24T08:38:58;9.70;99.90
8792;DHT22;4432;50.890;4.744;2022-11-24T08:41:25;9.80;99.90
8792;DHT22;4432;50.890;4.744;2022-11-24T08:43:52;9.80;99.90
8792;DHT22;4432;50.890;4.744;2022-11-24T08:46:18;9.80;99.90
8792;DHT22;4432;50.890;4.744;2022-11-24T08:48:48;9.90;99.90
8792;DHT22;4432;50.890;4.744;2022-11-24T08:51:17;9.90;99.90
8792;DHT22;4432;50.890;4.744;2022-11-24T08:53:44;9.90;99.90
8792;DHT22;4432;50.890;4.744;2022-11-24T08:56:11;9.90;99.90
8792;DHT22;4432;50.890;4.744;2022-11-24T08:58:37;10.00;99.90
8792;DHT22;4432;50.890;4.744;2022-11-24T09:01:09;10.00;99.90
8792;DHT22;4432;50.890;4.744;2022-11-24T09:03:35;10.10;99.90
8792;DHT22;4432;50.890;4.744;2022-11-24T09:06:02;10.10;99.90
8792;DHT22;4432;50.890;4.744;2022-11-24T09:08:29;10.00;99.90
8792;DHT22;4432;50.890;4.744;2022-11-24T09:11:02;10.00;99.90
8792;DHT22;4432;50.890;4.744;2022-11-24T09:13:30;10.00;99.90
8792;DHT22;4432;50.890;4.744;2022-11-24T09:16:04;10.10;99.90
8792;DHT22;4432;50.890;4.744;2022-11-24T09:18:30;10.10;99.90
8792;DHT22;4432;50.890;4.744;2022-11-24T09:21:07;10.10;99.90
8792;DHT22;4432;50.890;4.744;2022-11-24T09:23:34;10.10;99.90
8792;DHT22;4432;50.890;4.744;2022-11-24T09:26:08;10.20;99.90
8792;DHT22;4432;50.890;4.744;2022-11-24T09:28:34;10.20;99.90
8792;DHT22;4432;50.890;4.744;2022-11-24T09:31:01;10.30;99.90
8792;DHT22;4432;50.890;4.744;2022-11-24T09:33:27;10.40;99.90
8792;DHT22;4432;50.890;4.744;2022-11-24T09:35:53;10.50;99.90
8792;DHT22;4432;50.890;4.744;2022-11-24T09:38:19;10.50;99.90
8792;DHT22;4432;50.890;4.744;2022-11-24T09:40:44;10.60;99.90
8792;DHT22;4432;50.890;4.744;2022-11-24T09:46:10;10.60;99.90
8792;DHT22;4432;50.890;4.744;2022-11-24T09:48:42;10.70;99.90
8792;DHT22;4432;50.890;4.744;2022-11-24T09:51:12;10.70;99.90
8792;DHT22;4432;50.890;4.744;2022-11-24T09:53:53;10.70;99.90
8792;DHT22;4432;50.890;4.744;2022-11-24T09:56:23;10.80;99.90
8792;DHT22;4432;50.890;4.744;2022-11-24T09:59:06;10.90;99.90
8792;DHT22;4432;50.890;4.744;2022-11-24T10:01:36;10.90;99.90
8792;DHT22;4432;50.890;4.744;2022-11-24T10:04:24;10.90;99.90
8792;DHT22;4432;50.890;4.744;2022-11-24T10:10:09;11.00;99.90
8792;DHT22;4432;50.890;4.744;2022-11-24T10:21:38;11.20;99.90
8792;DHT22;4432;50.890;4.744;2022-11-24T10:24:18;11.20;99.90
8792;DHT22;4432;50.890;4.744;2022-11-24T10:27:00;11.30;99.90
8792;DHT22;4432;50.890;4.744;2022-11-24T10:29:36;11.40;99.90
8792;DHT22;4432;50.890;4.744;2022-11-24T10:32:12;11.50;99.90
8792;DHT22;4432;50.890;4.744;2022-11-24T10:34:43;11.50;99.90
8792;DHT22;4432;50.890;4.744;2022-11-24T10:42:16;11.60;99.90
8792;DHT22;4432;50.890;4.744;2022-11-24T10:44:42;11.50;99.90
8792;DHT22;4432;50.890;4.744;2022-11-24T10:47:19;11.60;99.90
8792;DHT22;4432;50.890;4.744;2022-11-24T10:50:36;11.70;99.90
8792;DHT22;4432;50.890;4.744;2022-11-24T10:58:35;11.80;99.90
8792;DHT22;4432;50.890;4.744;2022-11-24T11:01:30;11.80;99.90
8792;DHT22;4432;50.890;4.744;2022-11-24T11:03:58;11.80;99.90
8792;DHT22;4432;50.890;4.744;2022-11-24T11:06:28;11.80;99.90
8792;DHT22;4432;50.890;4.744;2022-11-24T11:11:33;11.90;99.90
8792;DHT22;4432;50.890;4.744;2022-11-24T11:14:01;11.90;99.90
8792;DHT22;4432;50.890;4.744;2022-11-24T11:16:53;12.00;99.90
8792;DHT22;4432;50.890;4.744;2022-11-24T11:22:05;12.10;99.90
8792;DHT22;4432;50.890;4.744;2022-11-24T11:24:44;12.10;99.90
8792;DHT22;4432;50.890;4.744;2022-11-24T11:27:22;12.10;99.90
8792;DHT22;4432;50.890;4.744;2022-11-24T11:29:49;12.00;99.90
8792;DHT22;4432;50.890;4.744;2022-11-24T11:32:21;12.00;99.90
8792;DHT22;4432;50.890;4.744;2022-11-24T11:34:48;12.10;99.90
8792;DHT22;4432;50.890;4.744;2022-11-24T11:37:15;12.20;99.90
8792;DHT22;4432;50.890;4.744;2022-11-24T11:39:46;12.30;99.90
8792;DHT22;4432;50.890;4.744;2022-11-24T11:47:52;12.20;99.90
8792;DHT22;4432;50.890;4.744;2022-11-24T11:56:06;12.40;99.90
8792;DHT22;4432;50.890;4.744;2022-11-24T11:58:37;12.40;99.90
8792;DHT22;4432;50.890;4.744;2022-11-24T12:01:35;12.30;99.90
8792;DHT22;4432;50.890;4.744;2022-11-24T12:07:05;12.30;99.90
8792;DHT22;4432;50.890;4.744;2022-11-24T12:09:53;12.30;99.90
8792;DHT22;4432;50.890;4.744;2022-11-24T12:12:44;12.30;99.90
8792;DHT22;4432;50.890;4.744;2022-11-24T12:15:37;12.40;99.90
8792;DHT22;4432;50.890;4.744;2022-11-24T12:25:55;12.60;99.90
8792;DHT22;4432;50.890;4.744;2022-11-24T12:31:20;12.60;99.90
8792;DHT22;4432;50.890;4.744;2022-11-24T12:39:51;12.40;99.90
8792;DHT22;4432;50.890;4.744;2022-11-24T12:50:38;12.00;99.90
8792;DHT22;4432;50.890;4.744;2022-11-24T12:53:16;12.00;99.90
8792;DHT22;4432;50.890;4.744;2022-11-24T12:55:43;12.00;99.90
8792;DHT22;4432;50.890;4.744;2022-11-24T13:06:44;12.40;99.90
8792;DHT22;4432;50.890;4.744;2022-11-24T13:09:11;12.40;99.90
8792;DHT22;4432;50.890;4.744;2022-11-24T13:12:16;12.40;99.90
8792;DHT22;4432;50.890;4.744;2022-11-24T13:14:48;12.40;99.90
8792;DHT22;4432;50.890;4.744;2022-11-24T13:17:31;12.40;99.90
8792;DHT22;4432;50.890;4.744;2022-11-24T13:20:21;12.40;99.90
8792;DHT22;4432;50.890;4.744;2022-11-24T13:22:52;12.40;99.90
8792;DHT22;4432;50.890;4.744;2022-11-24T13:25:27;12.30;99.90
8792;DHT22;4432;50.890;4.744;2022-11-24T13:27:54;12.30;99.90
8792;DHT22;4432;50.890;4.744;2022-11-24T13:38:39;12.20;99.90
8792;DHT22;4432;50.890;4.744;2022-11-24T13:41:08;12.20;99.90
8792;DHT22;4432;50.890;4.744;2022-11-24T13:43:35;12.10;99.90
8792;DHT22;4432;50.890;4.744;2022-11-24T13:46:02;12.10;99.90
8792;DHT22;4432;50.890;4.744;2022-11-24T13:53:45;11.80;99.90
8792;DHT22;4432;50.890;4.744;2022-11-24T13:58:55;11.60;99.90
8792;DHT22;4432;50.890;4.744;2022-11-24T14:04:19;11.60;99.90
8792;DHT22;4432;50.890;4.744;2022-11-24T14:12:19;11.50;99.90
8792;DHT22;4432;50.890;4.744;2022-11-24T14:14:49;11.50;99.90
8792;DHT22;4432;50.890;4.744;2022-11-24T14:17:24;11.40;99.90
8792;DHT22;4432;50.890;4.744;2022-11-24T14:19:54;11.40;99.90
8792;DHT22;4432;50.890;4.744;2022-11-24T14:22:31;11.30;99.90
8792;DHT22;4432;50.890;4.744;2022-11-24T14:25:00;11.30;99.90
8792;DHT22;4432;50.890;4.744;2022-11-24T14:27:32;11.20;99.90
8792;DHT22;4432;50.890;4.744;2022-11-24T14:32:40;11.20;99.90
8792;DHT22;4432;50.890;4.744;2022-11-24T14:37:49;11.10;99.90
8792;DHT22;4432;50.890;4.744;2022-11-24T14:40:53;11.00;99.90
8792;DHT22;4432;50.890;4.744;2022-11-24T14:43:30;10.90;99.90
8792;DHT22;4432;50.890;4.744;2022-11-24T14:46:06;10.90;99.90
8792;DHT22;4432;50.890;4.744;2022-11-24T14:48:47;10.90;99.90
8792;DHT22;4432;50.890;4.744;2022-11-24T14:51:25;10.80;99.90
8792;DHT22;4432;50.890;4.744;2022-11-24T14:53:54;10.80;99.90
8792;DHT22;4432;50.890;4.744;2022-11-24T14:58:49;10.80;99.90
8792;DHT22;4432;50.890;4.744;2022-11-24T15:06:49;10.60;99.90
8792;DHT22;4432;50.890;4.744;2022-11-24T15:09:29;10.60;99.90
8792;DHT22;4432;50.890;4.744;2022-11-24T15:11:56;10.50;99.90
8792;DHT22;4432;50.890;4.744;2022-11-24T15:17:24;10.50;99.90
8792;DHT22;4432;50.890;4.744;2022-11-24T15:20:37;10.40;99.90
8792;DHT22;4432;50.890;4.744;2022-11-24T15:22:43;10.30;99.90
8792;DHT22;4432;50.890;4.744;2022-11-24T15:25:31;10.30;99.90
8792;DHT22;4432;50.890;4.744;2022-11-24T15:27:58;10.30;99.90
8792;DHT22;4432;50.890;4.744;2022-11-24T15:30:24;10.30;99.90
8792;DHT22;4432;50.890;4.744;2022-11-24T15:32:57;10.30;99.90
8792;DHT22;4432;50.890;4.744;2022-11-24T15:35:24;10.30;99.90
8792;DHT22;4432;50.890;4.744;2022-11-24T15:37:51;10.20;99.90
8792;DHT22;4432;50.890;4.744;2022-11-24T15:40:17;10.20;99.90
8792;DHT22;4432;50.890;4.744;2022-11-24T15:42:52;10.10;99.90
8792;DHT22;4432;50.890;4.744;2022-11-24T15:45:20;10.10;99.90
8792;DHT22;4432;50.890;4.744;2022-11-24T15:47:46;10.10;99.90
8792;DHT22;4432;50.890;4.744;2022-11-24T15:50:12;10.10;99.90
8792;DHT22;4432;50.890;4.744;2022-11-24T15:52:39;10.00;99.90
8792;DHT22;4432;50.890;4.744;2022-11-24T15:55:05;10.00;99.90
8792;DHT22;4432;50.890;4.744;2022-11-24T15:57:32;10.00;99.90
8792;DHT22;4432;50.890;4.744;2022-11-24T15:59:59;9.90;99.90
8792;DHT22;4432;50.890;4.744;2022-11-24T16:02:25;9.90;99.90
8792;DHT22;4432;50.890;4.744;2022-11-24T16:04:50;9.90;99.90
8792;DHT22;4432;50.890;4.744;2022-11-24T16:07:16;9.80;99.90
8792;DHT22;4432;50.890;4.744;2022-11-24T16:09:42;9.80;99.90
8792;DHT22;4432;50.890;4.744;2022-11-24T16:12:08;9.80;99.90
8792;DHT22;4432;50.890;4.744;2022-11-24T16:14:34;9.80;99.90
8792;DHT22;4432;50.890;4.744;2022-11-24T16:17:00;9.70;99.90
8792;DHT22;4432;50.890;4.744;2022-11-24T16:19:26;9.70;99.90
8792;DHT22;4432;50.890;4.744;2022-11-24T16:21:52;9.70;99.90
8792;DHT22;4432;50.890;4.744;2022-11-24T16:24:18;9.60;99.90
8792;DHT22;4432;50.890;4.744;2022-11-24T16:26:43;9.60;99.90
8792;DHT22;4432;50.890;4.744;2022-11-24T16:29:09;9.50;99.90
8792;DHT22;4432;50.890;4.744;2022-11-24T16:31:35;9.50;99.90
8792;DHT22;4432;50.890;4.744;2022-11-24T16:34:01;9.40;99.90
8792;DHT22;4432;50.890;4.744;2022-11-24T16:36:27;9.40;99.90
8792;DHT22;4432;50.890;4.744;2022-11-24T16:38:53;9.40;99.90
8792;DHT22;4432;50.890;4.744;2022-11-24T16:41:19;9.30;99.90
8792;DHT22;4432;50.890;4.744;2022-11-24T16:43:46;9.30;99.90
8792;DHT22;4432;50.890;4.744;2022-11-24T16:46:22;9.30;99.90
8792;DHT22;4432;50.890;4.744;2022-11-24T16:48:50;9.30;99.90
8792;DHT22;4432;50.890;4.744;2022-11-24T16:51:18;9.30;99.90
8792;DHT22;4432;50.890;4.744;2022-11-24T16:53:45;9.30;99.90
8792;DHT22;4432;50.890;4.744;2022-11-24T16:56:11;9.20;99.90
8792;DHT22;4432;50.890;4.744;2022-11-24T16:58:39;9.20;99.90
8792;DHT22;4432;50.890;4.744;2022-11-24T17:01:10;9.20;99.90
8792;DHT22;4432;50.890;4.744;2022-11-24T17:03:37;9.20;99.90
8792;DHT22;4432;50.890;4.744;2022-11-24T17:06:05;9.20;99.90
8792;DHT22;4432;50.890;4.744;2022-11-24T17:08:33;9.10;99.90
8792;DHT22;4432;50.890;4.744;2022-11-24T17:13:35;9.10;99.90
8792;DHT22;4432;50.890;4.744;2022-11-24T17:16:06;9.10;99.90
8792;DHT22;4432;50.890;4.744;2022-11-24T17:18:32;9.00;99.90
8792;DHT22;4432;50.890;4.744;2022-11-24T17:20:59;9.00;99.90
8792;DHT22;4432;50.890;4.744;2022-11-24T17:23:25;9.00;99.90
8792;DHT22;4432;50.890;4.744;2022-11-24T17:25:51;9.00;99.90
8792;DHT22;4432;50.890;4.744;2022-11-24T17:28:18;9.00;99.90
8792;DHT22;4432;50.890;4.744;2022-11-24T17:30:43;9.00;99.90
8792;DHT22;4432;50.890;4.744;2022-11-24T17:33:09;8.90;99.90
8792;DHT22;4432;50.890;4.744;2022-11-24T17:35:36;8.90;99.90
8792;DHT22;4432;50.890;4.744;2022-11-24T17:38:02;8.90;99.90
8792;DHT22;4432;50.890;4.744;2022-11-24T17:40:28;8.90;99.90
8792;DHT22;4432;50.890;4.744;2022-11-24T17:42:58;8.90;99.90
8792;DHT22;4432;50.890;4.744;2022-11-24T17:45:25;8.90;99.90
8792;DHT22;4432;50.890;4.744;2022-11-24T17:47:51;8.80;99.90
8792;DHT22;4432;50.890;4.744;2022-11-24T17:50:17;8.90;99.90
8792;DHT22;4432;50.890;4.744;2022-11-24T17:52:42;9.00;99.90
8792;DHT22;4432;50.890;4.744;2022-11-24T17:55:08;9.00;99.90
8792;DHT22;4432;50.890;4.744;2022-11-24T17:57:34;9.00;99.90
8792;DHT22;4432;50.890;4.744;2022-11-24T18:00:00;8.90;99.90
8792;DHT22;4432;50.890;4.744;2022-11-24T18:02:26;8.90;99.90
8792;DHT22;4432;50.890;4.744;2022-11-24T18:04:52;8.90;99.90
8792;DHT22;4432;50.890;4.744;2022-11-24T18:07:17;8.90;99.90
8792;DHT22;4432;50.890;4.744;2022-11-24T18:09:43;8.90;99.90
8792;DHT22;4432;50.890;4.744;2022-11-24T18:12:09;8.80;99.90
8792;DHT22;4432;50.890;4.744;2022-11-24T18:14:35;8.80;99.90
8792;DHT22;4432;50.890;4.744;2022-11-24T18:17:00;8.80;99.90
8792;DHT22;4432;50.890;4.744;2022-11-24T18:19:26;8.80;99.90
8792;DHT22;4432;50.890;4.744;2022-11-24T18:21:52;8.70;99.90
8792;DHT22;4432;50.890;4.744;2022-11-24T18:24:17;8.70;99.90
8792;DHT22;4432;50.890;4.744;2022-11-24T18:26:43;8.70;99.90